Time;durP1;ratioP1;P1;durP2;ratioP2;P2;SDS_P1;SDS_P2;PMS_P1;PMS_P2;Temp;Humidity;BMP_temperature;BMP_pressure;BME280_temperature;BME280_humidity;BME280_pressure;Samples;Min_cycle;Max_cycle;Signal;HPM_P1;HPM_P2
2023/04/10 00:02:07;;;;;;;13.10;9.05;;;;;;;7.83;61.95;98917.75;7387868;19;20377;-78
2023/04/10 00:04:34;;;;;;;15.23;8.60;;;;;;;7.83;62.01;98909.03;7386023;19;19918;-80
2023/04/10 00:07:01;;;;;;;14.27;8.18;;;;;;;7.86;61.85;98919.31;7392612;19;19926;-78
2023/04/10 00:09:29;;;;;;;12.18;8.20;;;;;;;7.80;62.34;98920.66;7396763;19;19918;-82
2023/04/10 00:11:56;;;;;;;12.95;8.35;;;;;;;7.79;62.21;98920.75;7384982;19;19919;-78
2023/04/10 00:14:23;;;;;;;11.95;8.60;;;;;;;7.78;62.28;98914.66;7398352;19;20522;-79
2023/04/10 00:16:50;;;;;;;11.48;8.05;;;;;;;7.69;62.36;98912.78;7400002;19;19943;-82
2023/04/10 00:19:16;;;;;;;11.98;9.55;;;;;;;7.69;63.06;98910.16;7396086;19;20512;-78
2023/04/10 00:21:43;;;;;;;10.52;7.68;;;;;;;7.65;62.44;98911.34;7392766;19;20413;-79
2023/04/10 00:24:10;;;;;;;12.10;9.55;;;;;;;7.67;63.10;98914.72;7396980;19;20275;-79
2023/04/10 00:26:37;;;;;;;13.93;8.65;;;;;;;7.66;63.04;98910.38;7397069;19;19922;-80
2023/04/10 00:29:04;;;;;;;12.18;7.63;;;;;;;7.64;62.77;98907.91;7398393;19;19938;-80
2023/04/10 00:31:31;;;;;;;12.52;7.95;;;;;;;7.60;62.73;98908.25;7395970;19;19929;-80
2023/04/10 00:33:57;;;;;;;12.40;8.52;;;;;;;7.53;62.97;98901.81;7400059;19;19929;-81
2023/04/10 00:36:25;;;;;;;11.93;8.25;;;;;;;7.50;63.34;98908.16;7402112;19;19918;-78
2023/04/10 00:38:52;;;;;;;11.38;9.73;;;;;;;7.48;63.82;98908.28;7398481;19;20278;-80
2023/04/10 00:41:19;;;;;;;13.20;8.75;;;;;;;7.41;63.69;98903.63;7399087;19;19926;-79
2023/04/10 00:43:46;;;;;;;10.60;8.07;;;;;;;7.31;63.93;98908.78;7396775;19;19948;-79
2023/04/10 00:46:12;;;;;;;13.95;8.35;;;;;;;7.19;64.51;98907.97;7399889;19;19926;-79
2023/04/10 00:48:39;;;;;;;14.82;9.75;;;;;;;7.07;65.22;98906.31;7396886;19;19925;-81
2023/04/10 00:51:06;;;;;;;14.00;9.15;;;;;;;7.04;65.54;98904.75;7400464;19;20423;-82
2023/04/10 00:53:33;;;;;;;12.75;7.88;;;;;;;7.02;65.00;98909.28;7402122;19;20350;-80
2023/04/10 00:56:00;;;;;;;14.68;9.45;;;;;;;7.04;65.16;98890.75;7404711;19;19947;-81
2023/04/10 00:58:27;;;;;;;12.55;8.20;;;;;;;7.06;64.86;98894.13;7401501;19;19926;-80
2023/04/10 01:00:55;;;;;;;11.82;8.13;;;;;;;7.12;64.80;98884.91;7397390;19;19917;-81
2023/04/10 01:03:22;;;;;;;12.13;8.13;;;;;;;7.11;64.60;98885.84;7399822;19;19922;-81
2023/04/10 01:05:51;;;;;;;11.95;8.35;;;;;;;7.13;64.70;98883.94;7398872;19;19907;-81
2023/04/10 01:08:26;;;;;;;13.57;8.75;;;;;;;7.13;64.31;98889.19;7405200;19;19945;-81
2023/04/10 01:11:14;;;;;;;13.23;8.07;;;;;;;7.17;64.49;98888.00;7400322;19;19935;-81
2023/04/10 01:13:53;;;;;;;14.23;9.90;;;;;;;7.16;64.40;98888.94;7402925;19;19953;-79
2023/04/10 01:16:29;;;;;;;14.63;8.45;;;;;;;7.13;64.43;98899.72;7404643;19;19968;-81
2023/04/10 01:19:06;;;;;;;11.35;7.82;;;;;;;7.11;64.17;98891.09;7395964;19;19915;-81
2023/04/10 01:21:35;;;;;;;12.55;8.20;;;;;;;7.09;64.97;98895.66;7393767;19;19936;-80
2023/04/10 01:24:20;;;;;;;13.52;9.07;;;;;;;7.07;64.63;98905.47;7401264;19;19939;-80
2023/04/10 01:27:12;;;;;;;12.05;7.60;;;;;;;7.08;64.61;98909.75;7400081;19;19922;-82
2023/04/10 01:29:43;;;;;;;10.65;8.55;;;;;;;7.07;64.56;98900.22;7394518;19;19922;-83
2023/04/10 01:32:13;;;;;;;12.60;8.82;;;;;;;7.08;64.92;98907.13;7399813;19;19921;-79
2023/04/10 01:34:42;;;;;;;14.70;8.32;;;;;;;7.05;64.70;98905.59;7395148;19;19919;-82
2023/04/10 01:37:29;;;;;;;13.05;8.88;;;;;;;7.03;65.02;98905.72;7399414;19;19927;-80
2023/04/10 01:40:05;;;;;;;11.15;8.50;;;;;;;7.07;65.04;98901.03;7393956;19;19914;-80
2023/04/10 01:42:44;;;;;;;11.77;7.35;;;;;;;7.08;65.11;98907.13;7399214;19;19922;-80
2023/04/10 01:45:16;;;;;;;12.52;8.48;;;;;;;7.06;65.32;98898.53;7400581;19;20360;-81
2023/04/10 01:47:48;;;;;;;13.77;8.50;;;;;;;7.03;65.27;98894.38;7395062;19;19926;-81
2023/04/10 01:50:15;;;;;;;13.15;8.48;;;;;;;7.03;64.95;98894.38;7394148;19;19914;-78
2023/04/10 01:52:43;;;;;;;13.52;8.52;;;;;;;7.04;65.03;98890.75;7387299;19;20345;-80
2023/04/10 01:55:16;;;;;;;13.55;9.70;;;;;;;7.03;65.20;98889.94;7399009;19;20267;-79
2023/04/10 01:57:49;;;;;;;11.18;7.68;;;;;;;7.08;65.38;98884.28;7395206;19;19915;-79
2023/04/10 02:00:17;;;;;;;11.80;7.93;;;;;;;7.06;65.73;98886.22;7395924;19;19915;-81
2023/04/10 02:02:44;;;;;;;12.82;8.43;;;;;;;7.06;65.66;98877.47;7401965;19;19930;-79
2023/04/10 02:05:14;;;;;;;11.52;7.60;;;;;;;7.07;65.61;98876.53;7398585;19;19930;-81
2023/04/10 02:07:45;;;;;;;12.80;8.93;;;;;;;6.98;64.46;98863.16;7391765;19;19926;-77
2023/04/10 02:10:35;;;;;;;11.57;8.73;;;;;;;7.00;65.39;98868.28;7391753;19;20712;-80
2023/04/10 02:13:06;;;;;;;13.55;9.52;;;;;;;7.00;65.02;98865.66;7396203;19;20254;-80
2023/04/10 02:15:33;;;;;;;12.02;8.82;;;;;;;7.00;65.63;98870.91;7399382;19;19910;-78
2023/04/10 02:18:03;;;;;;;12.18;7.68;;;;;;;6.99;65.20;98877.13;7389886;19;19918;-79
2023/04/10 02:20:31;;;;;;;12.77;7.93;;;;;;;7.06;65.38;98874.84;7390728;19;20725;-81
2023/04/10 02:23:02;;;;;;;12.07;8.13;;;;;;;7.00;65.35;98868.28;7399547;19;19945;-82
2023/04/10 02:25:33;;;;;;;13.35;8.30;;;;;;;7.00;65.26;98874.41;7399393;19;19999;-82
2023/04/10 02:28:04;;;;;;;13.25;9.05;;;;;;;6.97;65.28;98874.59;7392512;19;19926;-80
2023/04/10 02:30:32;;;;;;;12.13;7.60;;;;;;;6.96;64.64;98878.22;7404811;19;20428;-80
2023/04/10 02:32:59;;;;;;;11.13;7.75;;;;;;;6.93;65.09;98881.09;7394454;19;19947;-81
2023/04/10 02:35:28;;;;;;;13.00;8.77;;;;;;;6.94;65.04;98887.19;7397520;19;19918;-81
2023/04/10 02:37:55;;;;;;;12.38;7.28;;;;;;;6.91;64.83;98884.78;7397275;19;19914;-79
2023/04/10 02:40:22;;;;;;;11.48;7.72;;;;;;;6.90;65.22;98891.84;7397643;19;19925;-81
2023/04/10 02:42:55;;;;;;;11.98;7.95;;;;;;;6.84;65.50;98886.22;7394798;19;20005;-81
2023/04/10 02:45:22;;;;;;;12.05;8.40;;;;;;;6.81;65.50;98889.91;7396277;19;19959;-80
2023/04/10 02:47:49;;;;;;;11.48;7.43;;;;;;;6.78;65.25;98890.16;7394103;19;19926;-80
2023/04/10 02:50:17;;;;;;;11.20;7.40;;;;;;;6.75;65.26;98896.50;7398506;19;19928;-80
2023/04/10 02:52:45;;;;;;;13.38;8.77;;;;;;;6.64;65.33;98887.78;7400818;19;19922;-83
2023/04/10 02:55:12;;;;;;;13.20;7.82;;;;;;;6.56;65.78;98894.47;7430249;19;19915;-82
2023/04/10 02:57:41;;;;;;;12.57;8.70;;;;;;;6.53;65.90;98888.56;7421010;19;19927;-80
2023/04/10 03:00:09;;;;;;;12.25;7.65;;;;;;;6.56;65.57;98891.00;7424163;19;19907;-83
2023/04/10 03:03:08;;;;;;;10.70;7.45;;;;;;;6.57;65.63;98887.41;7425576;19;19931;-81
2023/04/10 03:05:48;;;;;;;11.63;7.68;;;;;;;6.44;65.89;98891.91;7420232;19;19911;-82
2023/04/10 03:08:18;;;;;;;11.30;9.05;;;;;;;6.36;66.43;98884.63;7422808;19;19919;-83
2023/04/10 03:10:49;;;;;;;13.20;9.20;;;;;;;6.32;66.69;98888.44;7406380;19;19930;-83
2023/04/10 03:13:19;;;;;;;12.13;7.65;;;;;;;6.30;66.59;98893.81;7415329;19;19951;-81
2023/04/10 03:15:46;;;;;;;11.88;8.07;;;;;;;6.29;66.74;98888.66;7406487;19;19946;-81
2023/04/10 03:18:12;;;;;;;11.82;9.10;;;;;;;6.30;67.22;98892.97;7404132;19;20440;-81
2023/04/10 03:20:41;;;;;;;9.63;7.20;;;;;;;6.33;67.28;98890.94;7399914;19;19943;-81
2023/04/10 03:23:10;;;;;;;13.43;8.10;;;;;;;6.29;66.70;98881.63;7407103;19;19956;-83
2023/04/10 03:25:37;;;;;;;10.45;6.93;;;;;;;6.31;66.69;98879.69;7407976;19;19922;-82
2023/04/10 03:28:05;;;;;;;13.02;7.93;;;;;;;6.32;66.97;98877.94;7406587;19;20349;-80
2023/04/10 03:30:34;;;;;;;11.63;7.50;;;;;;;6.32;66.90;98877.94;7403187;19;19939;-81
2023/04/10 03:33:02;;;;;;;10.27;7.47;;;;;;;6.34;66.71;98870.75;7392082;19;19914;-79
2023/04/10 03:35:29;;;;;;;12.13;8.13;;;;;;;6.30;66.43;98869.31;7398917;19;19937;-80
2023/04/10 03:37:56;;;;;;;11.90;7.93;;;;;;;6.29;66.93;98873.75;7392589;19;19969;-78
2023/04/10 03:40:22;;;;;;;11.52;8.18;;;;;;;6.29;67.56;98859.75;7401907;19;19915;-81
2023/04/10 03:42:49;;;;;;;13.10;7.32;;;;;;;6.29;67.38;98857.13;7392310;19;19923;-80
2023/04/10 03:45:16;;;;;;;13.82;8.63;;;;;;;6.28;67.22;98858.09;7401709;19;19943;-81
2023/04/10 03:47:43;;;;;;;13.07;7.65;;;;;;;6.28;67.29;98860.72;7399053;19;20570;-82
2023/04/10 03:50:13;;;;;;;10.80;7.93;;;;;;;6.29;67.30;98851.88;7396175;19;19944;-81
2023/04/10 03:52:48;;;;;;;12.30;6.93;;;;;;;6.29;67.30;98858.00;7386970;19;19915;-81
2023/04/10 03:55:17;;;;;;;11.85;8.98;;;;;;;6.30;66.89;98850.94;7401915;19;20331;-81
2023/04/10 03:57:46;;;;;;;11.45;7.72;;;;;;;6.28;67.00;98844.94;7401587;19;19930;-81
2023/04/10 04:00:16;;;;;;;11.68;7.95;;;;;;;6.24;66.90;98848.75;7397390;19;19918;-81
2023/04/10 04:02:45;;;;;;;11.13;7.70;;;;;;;6.19;66.68;98853.50;7401155;19;19943;-82
2023/04/10 04:05:19;;;;;;;11.90;7.68;;;;;;;6.17;67.13;98853.66;7399495;19;19922;-82
2023/04/10 04:08:12;;;;;;;12.20;7.63;;;;;;;6.17;67.24;98851.03;7404640;19;19922;-80
2023/04/10 04:10:57;;;;;;;11.43;7.60;;;;;;;6.13;66.94;98858.31;7398393;19;19919;-81
2023/04/10 04:13:51;;;;;;;10.90;7.38;;;;;;;6.08;67.48;98863.06;7399086;19;19926;-82
2023/04/10 04:16:37;;;;;;;10.52;7.25;;;;;;;6.01;67.20;98861.84;7402970;19;19925;-82
2023/04/10 04:19:25;;;;;;;11.00;8.02;;;;;;;5.95;67.12;98857.06;7390956;19;19927;-81
2023/04/10 04:22:07;;;;;;;8.60;6.70;;;;;;;5.96;67.20;98848.22;7394143;19;19923;-79
2023/04/10 04:24:56;;;;;;;13.43;8.80;;;;;;;6.02;67.51;98855.63;7383966;19;19978;-78
2023/04/10 04:27:43;;;;;;;10.18;6.88;;;;;;;6.01;67.59;98855.75;7394604;19;19922;-81
2023/04/10 04:30:29;;;;;;;12.70;10.57;;;;;;;6.06;67.59;98851.00;7402314;19;20257;-81
2023/04/10 04:33:25;;;;;;;11.65;7.63;;;;;;;6.04;67.12;98855.53;7386133;19;19919;-78
2023/04/10 04:35:55;;;;;;;12.43;7.50;;;;;;;6.04;67.55;98855.53;7391498;19;20748;-79
2023/04/10 04:38:57;;;;;;;12.63;7.97;;;;;;;6.07;67.86;98856.13;7381646;19;22466;-80
2023/04/10 04:41:47;;;;;;;10.77;7.35;;;;;;;6.05;67.93;98850.16;7380122;19;19957;-82
2023/04/10 04:44:36;;;;;;;11.10;7.75;;;;;;;6.10;68.05;98853.25;7406051;19;19915;-80
2023/04/10 04:47:14;;;;;;;12.10;8.07;;;;;;;6.12;68.14;98842.66;7404660;19;19971;-80
2023/04/10 04:49:54;;;;;;;12.40;7.60;;;;;;;6.19;68.43;98843.00;7394055;19;19910;-81
2023/04/10 04:52:20;;;;;;;12.05;7.93;;;;;;;6.21;68.67;98844.56;7404269;19;21319;-81
2023/04/10 04:55:03;;;;;;;12.25;8.45;;;;;;;6.24;68.10;98843.50;7389532;19;19918;-79
2023/04/10 04:57:35;;;;;;;11.32;7.70;;;;;;;6.26;68.21;98841.59;7397257;19;19951;-82
2023/04/10 05:00:09;;;;;;;13.13;8.25;;;;;;;6.31;68.27;98844.72;7407613;19;19910;-80
2023/04/10 05:02:56;;;;;;;13.27;8.77;;;;;;;6.34;67.79;98839.22;7404622;19;21015;-80
2023/04/10 05:05:41;;;;;;;11.20;7.40;;;;;;;6.35;67.74;98841.75;7407415;19;19922;-80
2023/04/10 05:08:26;;;;;;;10.20;6.80;;;;;;;6.36;67.34;98847.81;7415331;19;19922;-81
2023/04/10 05:11:01;;;;;;;11.50;7.55;;;;;;;6.38;67.12;98843.28;7408246;19;19922;-81
2023/04/10 05:13:40;;;;;;;13.27;9.23;;;;;;;6.36;66.72;98848.66;7405400;19;20265;-79
2023/04/10 05:16:21;;;;;;;10.70;7.28;;;;;;;6.37;67.01;98847.72;7414524;19;19919;-80
2023/04/10 05:19:11;;;;;;;10.75;7.80;;;;;;;6.44;67.11;98847.25;7411283;19;19926;-80
2023/04/10 05:21:59;;;;;;;11.50;7.15;;;;;;;6.47;67.41;98844.38;7410957;19;20031;-80
2023/04/10 05:24:53;;;;;;;11.50;7.15;;;;;;;6.51;67.40;98843.19;7411905;19;19919;-81
2023/04/10 05:27:35;;;;;;;13.50;7.93;;;;;;;6.56;66.95;98844.50;7408699;19;19919;-81
2023/04/10 05:30:20;;;;;;;12.25;7.22;;;;;;;6.60;67.37;98845.94;7408947;19;19922;-80
2023/04/10 05:33:05;;;;;;;12.15;7.40;;;;;;;6.66;66.72;98849.91;7408345;19;20048;-79
2023/04/10 05:35:45;;;;;;;10.77;6.82;;;;;;;6.73;66.63;98856.34;7400745;19;19926;-81
2023/04/10 05:38:31;;;;;;;12.70;8.30;;;;;;;6.79;67.03;98844.50;7412172;19;19915;-80
2023/04/10 05:41:09;;;;;;;10.98;6.95;;;;;;;6.86;66.88;98839.59;7401891;19;19944;-81
2023/04/10 05:43:55;;;;;;;11.63;7.20;;;;;;;6.93;66.94;98836.38;7407962;19;19919;-80
2023/04/10 05:46:45;;;;;;;9.85;8.68;;;;;;;7.02;66.33;98840.06;7410305;19;20490;-80
2023/04/10 05:49:32;;;;;;;10.68;7.32;;;;;;;7.10;66.19;98840.28;7413714;19;19929;-80
2023/04/10 05:52:12;;;;;;;10.77;6.95;;;;;;;7.15;65.75;98839.91;7407531;19;19921;-80
2023/04/10 05:54:58;;;;;;;11.13;7.05;;;;;;;7.21;65.14;98845.53;7411448;19;19921;-80
2023/04/10 05:57:38;;;;;;;11.00;8.15;;;;;;;7.38;65.15;98845.97;7402431;19;19918;-80
2023/04/10 06:00:23;;;;;;;10.65;8.90;;;;;;;7.46;65.11;98847.03;7406774;19;20670;-79
2023/04/10 06:03:22;;;;;;;11.07;9.10;;;;;;;7.57;64.46;98843.50;7404629;19;19939;-79
2023/04/10 06:05:55;;;;;;;10.60;7.05;;;;;;;7.65;64.34;98842.88;7403544;19;19925;-80
2023/04/10 06:08:22;;;;;;;13.05;7.50;;;;;;;7.69;63.68;98850.41;7402044;19;20752;-81
2023/04/10 06:10:48;;;;;;;8.90;6.03;;;;;;;7.73;63.26;98845.72;7403202;19;19929;-83
2023/04/10 06:13:15;;;;;;;9.20;7.30;;;;;;;7.80;63.41;98846.06;7407681;19;19961;-79
2023/04/10 06:15:42;;;;;;;9.77;8.80;;;;;;;7.88;63.23;98848.91;7407622;19;20659;-80
2023/04/10 06:18:09;;;;;;;10.15;6.50;;;;;;;7.97;62.47;98840.22;7406502;19;19918;-79
2023/04/10 06:20:36;;;;;;;7.72;6.15;;;;;;;8.01;62.37;98838.19;7399535;19;19922;-79
2023/04/10 06:23:02;;;;;;;9.30;6.47;;;;;;;8.01;62.57;98835.56;7410612;19;19918;-80
2023/04/10 06:25:29;;;;;;;11.55;7.78;;;;;;;8.05;62.43;98840.41;7431686;19;19910;-81
2023/04/10 06:28:01;;;;;;;10.48;6.72;;;;;;;8.01;62.34;98843.47;7426451;19;19914;-79
2023/04/10 06:30:29;;;;;;;24.85;7.78;;;;;;;8.02;61.86;98831.94;7406677;19;19989;-80
2023/04/10 06:32:56;;;;;;;9.32;6.00;;;;;;;8.04;62.01;98844.03;7404943;19;19982;-80
2023/04/10 06:35:23;;;;;;;10.82;6.53;;;;;;;8.06;61.73;98836.00;7402399;19;19927;-80
2023/04/10 06:37:50;;;;;;;10.35;6.85;;;;;;;8.12;61.62;98844.22;7401743;19;19915;-79
2023/04/10 06:40:16;;;;;;;9.13;6.30;;;;;;;8.11;61.97;98841.72;7403686;19;19910;-79
2023/04/10 06:42:43;;;;;;;9.43;6.65;;;;;;;8.14;61.32;98852.00;7406440;19;19921;-80
2023/04/10 06:45:26;;;;;;;8.93;6.20;;;;;;;8.08;60.53;98844.59;7405106;19;19914;-81
2023/04/10 06:47:52;;;;;;;8.13;5.80;;;;;;;8.16;60.11;98842.16;7406971;19;19922;-79
2023/04/10 06:50:19;;;;;;;8.35;5.70;;;;;;;8.27;60.01;98838.63;7403144;19;19926;-80
2023/04/10 06:52:46;;;;;;;8.43;5.82;;;;;;;8.34;60.20;98842.41;7402740;19;19926;-80
2023/04/10 06:55:13;;;;;;;7.65;5.55;;;;;;;8.47;60.05;98844.88;7397791;19;20455;-81
2023/04/10 06:57:40;;;;;;;8.32;5.47;;;;;;;8.47;60.29;98837.78;7403028;19;21922;-80
2023/04/10 07:00:08;;;;;;;8.85;7.72;;;;;;;8.51;60.38;98833.94;7397369;19;20291;-80
2023/04/10 07:02:35;;;;;;;8.00;5.22;;;;;;;8.57;60.09;98838.66;7403344;19;19966;-79
2023/04/10 07:05:01;;;;;;;9.20;5.65;;;;;;;8.69;59.11;98835.94;7397589;19;19923;-80
2023/04/10 07:07:28;;;;;;;8.88;5.43;;;;;;;8.79;59.24;98835.03;7408204;19;19922;-79
2023/04/10 07:09:56;;;;;;;7.82;5.40;;;;;;;8.89;58.69;98831.59;7396911;19;19918;-79
2023/04/10 07:12:23;;;;;;;6.72;5.07;;;;;;;8.98;58.97;98831.63;7399248;19;19922;-79
2023/04/10 07:14:50;;;;;;;8.32;6.75;;;;;;;9.18;58.24;98832.50;7407275;19;20265;-80
2023/04/10 07:17:17;;;;;;;8.68;5.60;;;;;;;9.25;58.03;98834.63;7401589;19;19978;-79
2023/04/10 07:19:44;;;;;;;7.97;5.43;;;;;;;9.36;56.06;98830.03;7402209;19;19939;-80
2023/04/10 07:22:11;;;;;;;7.43;6.32;;;;;;;9.53;56.17;98833.81;7401728;19;20267;-80
2023/04/10 07:24:38;;;;;;;7.53;5.25;;;;;;;9.72;56.19;98829.53;7395591;19;19961;-80
2023/04/10 07:27:04;;;;;;;9.07;5.40;;;;;;;9.96;55.61;98827.28;7400010;19;19930;-80
2023/04/10 07:29:31;;;;;;;7.97;4.65;;;;;;;10.08;54.35;98826.16;7399150;19;19922;-79
2023/04/10 07:31:58;;;;;;;7.30;5.50;;;;;;;10.17;53.71;98831.56;7399226;19;20372;-78
2023/04/10 07:34:25;;;;;;;6.90;5.18;;;;;;;10.29;53.46;98822.50;7397490;19;19933;-80
2023/04/10 07:36:52;;;;;;;8.57;5.95;;;;;;;10.44;54.81;98822.91;7401132;19;19911;-83
2023/04/10 07:39:19;;;;;;;6.20;4.68;;;;;;;10.54;54.21;98829.00;7403813;19;19943;-80
2023/04/10 07:41:46;;;;;;;7.05;5.30;;;;;;;10.73;53.23;98830.72;7398704;19;19946;-81
2023/04/10 07:44:13;;;;;;;6.72;5.30;;;;;;;10.78;52.74;98825.84;7392479;19;20755;-81
2023/04/10 07:46:40;;;;;;;6.55;4.57;;;;;;;10.83;52.26;98820.13;7402955;19;19943;-79
2023/04/10 07:49:07;;;;;;;7.30;5.22;;;;;;;10.88;51.37;98826.63;7399749;19;19926;-80
2023/04/10 07:51:34;;;;;;;6.50;4.53;;;;;;;11.01;51.73;98820.16;7399351;19;19925;-80
2023/04/10 07:54:02;;;;;;;6.00;4.57;;;;;;;11.27;50.79;98822.91;7398881;19;19914;-80
2023/04/10 07:56:32;;;;;;;6.63;4.35;;;;;;;11.38;51.46;98818.25;7400575;19;20617;-80
2023/04/10 07:58:59;;;;;;;6.65;5.00;;;;;;;11.49;51.24;98813.72;7396569;19;20532;-81
2023/04/10 08:01:27;;;;;;;8.07;4.85;;;;;;;11.61;49.72;98818.66;7393718;19;19934;-80
2023/04/10 08:03:55;;;;;;;6.72;4.88;;;;;;;11.71;49.77;98815.91;7397332;19;20336;-80
2023/04/10 08:06:22;;;;;;;5.28;4.03;;;;;;;12.04;47.99;98805.63;7401899;19;19919;-80
2023/04/10 08:08:51;;;;;;;7.07;4.93;;;;;;;12.28;48.07;98807.59;7399843;19;19925;-80
2023/04/10 08:11:26;;;;;;;5.65;4.15;;;;;;;12.50;47.42;98804.41;7395715;19;19998;-79
2023/04/10 08:14:00;;;;;;;8.10;4.68;;;;;;;12.85;46.99;98802.63;7401245;19;19922;-80
2023/04/10 08:16:28;;;;;;;5.88;4.25;;;;;;;13.15;47.45;98805.69;7398067;19;19925;-78
2023/04/10 08:18:56;;;;;;;7.32;4.97;;;;;;;13.28;46.27;98811.41;7392576;19;19906;-77
2023/04/10 08:21:25;;;;;;;4.90;4.35;;;;;;;13.54;44.89;98803.31;7397781;19;19922;-81
2023/04/10 08:23:53;;;;;;;5.68;4.15;;;;;;;13.89;44.63;98809.31;7395769;19;19926;-77
2023/04/10 08:26:20;;;;;;;5.97;4.03;;;;;;;13.83;44.66;98807.34;7392098;19;20431;-77
2023/04/10 08:28:49;;;;;;;6.03;4.65;;;;;;;13.89;44.68;98806.66;7398303;19;20485;-77
2023/04/10 08:31:17;;;;;;;5.75;4.50;;;;;;;13.90;45.09;98807.50;7397384;19;19926;-77
2023/04/10 08:33:43;;;;;;;5.68;3.63;;;;;;;13.83;44.22;98805.50;7405528;19;19919;-79
2023/04/10 08:36:11;;;;;;;5.05;4.35;;;;;;;13.67;45.36;98794.03;7409701;19;19918;-78
2023/04/10 08:38:38;;;;;;;4.60;3.95;;;;;;;13.84;44.68;98791.19;7403925;19;19947;-78
2023/04/10 08:41:05;;;;;;;5.13;4.30;;;;;;;13.91;44.08;98794.03;7404195;19;19919;-78
2023/04/10 08:43:33;;;;;;;4.88;3.78;;;;;;;14.01;44.65;98794.69;7409467;19;19951;-80
2023/04/10 08:46:01;;;;;;;4.82;3.88;;;;;;;14.03;43.16;98790.06;7400827;19;19926;-78
2023/04/10 08:48:33;;;;;;;4.93;4.13;;;;;;;14.24;43.17;98791.34;7404699;19;19952;-82
2023/04/10 08:51:03;;;;;;;4.60;3.75;;;;;;;14.31;42.77;98787.00;7393810;19;19942;-77
2023/04/10 08:53:32;;;;;;;4.60;3.45;;;;;;;14.54;43.85;98787.16;7404483;19;19975;-78
2023/04/10 08:56:01;;;;;;;5.82;4.72;;;;;;;14.66;42.20;98790.28;7400628;19;20251;-78
2023/04/10 08:58:28;;;;;;;5.07;4.65;;;;;;;14.72;42.40;98784.28;7405826;19;20253;-82
2023/04/10 09:00:55;;;;;;;5.55;3.47;;;;;;;14.57;42.29;98783.31;7404557;19;19922;-80
2023/04/10 09:03:22;;;;;;;4.25;3.13;;;;;;;14.42;41.90;98776.00;7408386;19;19927;-81
2023/04/10 09:05:49;;;;;;;5.22;3.78;;;;;;;14.58;42.27;98779.66;7397484;19;19919;-81
2023/04/10 09:08:16;;;;;;;4.93;3.65;;;;;;;14.67;41.40;98783.97;7400303;19;19943;-80
2023/04/10 09:10:43;;;;;;;4.35;2.97;;;;;;;14.75;40.73;98765.28;7408190;19;19939;-79
2023/04/10 09:13:09;;;;;;;3.22;2.72;;;;;;;15.09;41.38;98769.47;7402942;19;19919;-80
2023/04/10 09:15:55;;;;;;;3.80;3.08;;;;;;;15.69;40.64;98767.91;7402489;19;19929;-81
2023/04/10 09:18:39;;;;;;;3.63;3.25;;;;;;;15.71;39.06;98769.38;7407247;19;19986;-79
2023/04/10 09:21:10;;;;;;;4.80;3.30;;;;;;;15.73;39.43;98764.72;7397125;19;19930;-82
2023/04/10 09:23:37;;;;;;;3.40;3.10;;;;;;;15.13;37.80;98766.25;7402021;19;19981;-81
2023/04/10 09:26:23;;;;;;;4.45;3.38;;;;;;;15.07;38.00;98772.28;7407411;19;19918;-80
2023/04/10 09:29:01;;;;;;;3.25;2.47;;;;;;;15.06;37.71;98757.31;7409835;19;19970;-80
2023/04/10 09:31:35;;;;;;;4.60;3.22;;;;;;;15.24;39.88;98770.34;7399163;19;19925;-79
2023/04/10 09:34:06;;;;;;;3.10;2.45;;;;;;;15.12;38.49;98759.25;7400561;19;19990;-80
2023/04/10 09:36:33;;;;;;;3.53;3.22;;;;;;;15.32;38.73;98751.66;7402989;19;19918;-83
2023/04/10 09:39:00;;;;;;;3.28;2.58;;;;;;;15.52;37.65;98748.50;7402269;19;19914;-79
2023/04/10 09:41:27;;;;;;;3.22;2.92;;;;;;;15.48;37.27;98740.06;7398355;19;19918;-79
2023/04/10 09:44:15;;;;;;;2.95;2.53;;;;;;;15.49;37.28;98739.03;7404666;19;19914;-80
2023/04/10 09:46:43;;;;;;;3.70;2.92;;;;;;;15.82;37.39;98733.44;7405123;19;19923;-80
2023/04/10 09:49:10;;;;;;;3.40;2.65;;;;;;;15.75;36.34;98720.03;7401951;19;19921;-83
2023/04/10 09:51:38;;;;;;;4.43;2.95;;;;;;;15.67;37.96;98716.56;7402490;19;19944;-79
2023/04/10 09:54:05;;;;;;;3.45;2.38;;;;;;;15.85;38.61;98713.59;7405074;19;19935;-78
2023/04/10 09:56:35;;;;;;;4.30;3.78;;;;;;;15.77;36.71;98712.66;7401716;19;20245;-79
2023/04/10 09:59:03;;;;;;;;;;;;;;;15.89;36.35;98710.38;7407365;19;19922;-81
2023/04/10 10:01:33;;;;;;;3.47;2.65;;;;;;;15.94;36.56;98704.50;7403915;19;19931;-81
2023/04/10 10:04:04;;;;;;;2.60;2.05;;;;;;;16.13;36.11;98695.94;7397275;19;20347;-80
2023/04/10 10:06:31;;;;;;;2.92;2.33;;;;;;;16.42;35.91;98691.63;7402485;19;19955;-79
2023/04/10 10:09:03;;;;;;;3.78;2.38;;;;;;;16.91;35.76;98683.00;7402769;19;19939;-79
2023/04/10 10:11:33;;;;;;;3.10;2.67;;;;;;;16.92;35.15;98690.00;7402849;19;19918;-80
2023/04/10 10:14:02;;;;;;;2.42;2.22;;;;;;;16.97;34.36;98676.91;7398653;19;19936;-79
2023/04/10 10:16:42;;;;;;;2.78;2.15;;;;;;;17.27;34.17;98679.47;7401960;19;19922;-80
2023/04/10 10:19:23;;;;;;;3.55;3.22;;;;;;;17.21;33.89;98673.03;7400322;19;19918;-81
2023/04/10 10:21:51;;;;;;;3.20;2.03;;;;;;;17.47;34.35;98666.28;7399091;19;19970;-80
2023/04/10 10:24:19;;;;;;;2.45;2.03;;;;;;;17.89;34.14;98669.94;7401015;19;19915;-80
2023/04/10 10:26:46;;;;;;;3.53;2.90;;;;;;;18.03;35.12;98673.50;7402586;19;19930;-80
2023/04/10 10:29:16;;;;;;;2.75;2.13;;;;;;;18.26;32.93;98660.69;7397019;19;20319;-79
2023/04/10 10:31:43;;;;;;;2.58;1.95;;;;;;;18.26;31.36;98655.31;7398803;19;20392;-82
2023/04/10 10:34:10;;;;;;;3.60;2.03;;;;;;;18.34;31.65;98647.13;7401200;19;19947;-82
2023/04/10 10:36:40;;;;;;;4.03;2.80;;;;;;;18.66;33.65;98644.78;7400168;19;19918;-78
2023/04/10 10:40:01;;;;;;;2.10;1.90;;;;;;;19.02;32.76;98638.31;7397602;19;19939;-80
2023/04/10 10:42:39;;;;;;;2.30;1.83;;;;;;;19.29;30.44;98631.94;7399206;19;19920;-78
2023/04/10 10:45:10;;;;;;;3.35;2.40;;;;;;;19.34;30.75;98623.28;7400327;19;19947;-81
2023/04/10 10:47:49;;;;;;;2.15;1.90;;;;;;;19.30;29.46;98635.47;7393635;19;20650;-79
2023/04/10 10:50:16;;;;;;;2.92;2.30;;;;;;;19.09;30.39;98623.06;7393502;19;19945;-79
2023/04/10 10:52:54;;;;;;;2.25;1.80;;;;;;;18.94;30.78;98617.06;7399893;19;19938;-81
2023/04/10 10:55:24;;;;;;;2.78;2.03;;;;;;;18.73;29.94;98616.16;7398408;19;19926;-82
2023/04/10 10:57:54;;;;;;;1.80;1.52;;;;;;;18.72;32.20;98617.19;7401441;19;19915;-78
2023/04/10 11:00:23;;;;;;;2.55;1.80;;;;;;;18.74;30.39;98615.09;7399345;19;19915;-78
2023/04/10 11:03:09;;;;;;;2.03;1.73;;;;;;;18.82;30.60;98601.53;7409821;19;20530;-81
2023/04/10 11:06:06;;;;;;;2.95;2.05;;;;;;;19.16;30.01;98599.75;7402827;19;19925;-81
2023/04/10 11:08:33;;;;;;;2.20;1.42;;;;;;;19.17;29.24;98608.59;7400850;19;19927;-81
2023/04/10 11:11:01;;;;;;;2.22;1.67;;;;;;;19.08;27.52;98611.47;7398391;19;19926;-79
2023/04/10 11:13:28;;;;;;;2.15;1.58;;;;;;;19.14;29.01;98604.50;7403235;19;19928;-80
2023/04/10 11:15:57;;;;;;;2.70;1.77;;;;;;;19.08;28.78;98605.31;7402576;19;19926;-79
2023/04/10 11:18:46;;;;;;;1.65;1.40;;;;;;;19.12;27.88;98598.50;7401298;19;19915;-78
2023/04/10 11:21:28;;;;;;;5.38;4.97;;;;;;;19.97;27.30;98595.16;7400560;19;19974;-79
2023/04/10 11:23:54;;;;;;;1.52;1.33;;;;;;;20.85;27.52;98589.19;7396271;19;19915;-79
2023/04/10 11:26:34;;;;;;;1.60;1.35;;;;;;;21.57;25.72;98581.66;7398993;19;20434;-78
2023/04/10 11:29:01;;;;;;;1.58;1.35;;;;;;;21.91;24.74;98580.25;7397576;19;19918;-76
2023/04/10 11:31:28;;;;;;;1.70;1.08;;;;;;;22.16;24.64;98573.97;7398158;19;19911;-79
2023/04/10 11:33:55;;;;;;;1.75;1.10;;;;;;;21.97;24.96;98571.28;7397831;19;19930;-78
2023/04/10 11:36:22;;;;;;;1.70;1.27;;;;;;;21.71;25.09;98583.16;7397202;19;19922;-77
2023/04/10 11:38:56;;;;;;;1.48;1.15;;;;;;;22.41;24.98;98573.88;7391983;19;19918;-80
2023/04/10 11:41:27;;;;;;;2.75;1.30;;;;;;;23.13;23.68;98574.75;7395608;19;19929;-79
2023/04/10 11:43:54;;;;;;;1.65;1.38;;;;;;;24.03;23.83;98575.47;7394529;19;19914;-78
2023/04/10 11:46:21;;;;;;;2.17;1.27;;;;;;;24.59;22.18;98570.38;7392306;19;19906;-78
2023/04/10 11:48:52;;;;;;;1.42;1.33;;;;;;;24.77;21.22;98570.19;7396158;19;20358;-77
2023/04/10 11:51:19;;;;;;;1.48;1.13;;;;;;;24.74;21.58;98562.56;7387904;19;19943;-79
2023/04/10 11:53:49;;;;;;;1.85;0.98;;;;;;;25.01;20.46;98570.06;7390536;19;19942;-77
2023/04/10 11:56:20;;;;;;;1.00;0.85;;;;;;;24.19;19.82;98560.38;7393054;19;20544;-79
2023/04/10 11:58:53;;;;;;;1.38;1.00;;;;;;;23.79;20.84;98561.19;7397147;19;19932;-78